sensor_id;sensor_type;location;lat;lon;timestamp;temperature;humidity
10247;DHT22;5168;47.854;7.944;2023-07-31T00:04:15;11.30;99.90
10247;DHT22;5168;47.854;7.944;2023-07-31T00:06:42;11.30;99.90
10247;DHT22;5168;47.854;7.944;2023-07-31T00:11:33;11.30;99.90
10247;DHT22;5168;47.854;7.944;2023-07-31T00:13:59;11.60;99.90
10247;DHT22;5168;47.854;7.944;2023-07-31T00:16:25;11.10;99.90
10247;DHT22;5168;47.854;7.944;2023-07-31T00:28:34;11.00;99.90
10247;DHT22;5168;47.854;7.944;2023-07-31T00:35:53;10.90;99.90
10247;DHT22;5168;47.854;7.944;2023-07-31T00:38:18;10.70;99.90
10247;DHT22;5168;47.854;7.944;2023-07-31T00:40:44;11.10;99.90
10247;DHT22;5168;47.854;7.944;2023-07-31T00:50:28;11.00;99.90
10247;DHT22;5168;47.854;7.944;2023-07-31T00:57:48;11.20;99.90
10247;DHT22;5168;47.854;7.944;2023-07-31T01:00:13;11.20;99.90
10247;DHT22;5168;47.854;7.944;2023-07-31T01:02:39;11.30;99.90
10247;DHT22;5168;47.854;7.944;2023-07-31T01:05:05;10.90;99.90
10247;DHT22;5168;47.854;7.944;2023-07-31T01:07:49;11.20;99.90
10247;DHT22;5168;47.854;7.944;2023-07-31T01:10:26;10.80;99.90
10247;DHT22;5168;47.854;7.944;2023-07-31T01:12:53;11.10;99.90
10247;DHT22;5168;47.854;7.944;2023-07-31T01:15:19;11.20;99.90
10247;DHT22;5168;47.854;7.944;2023-07-31T01:17:46;11.30;99.90
10247;DHT22;5168;47.854;7.944;2023-07-31T01:20:21;11.00;99.90
10247;DHT22;5168;47.854;7.944;2023-07-31T01:31:07;11.10;99.90
10247;DHT22;5168;47.854;7.944;2023-07-31T01:33:36;10.90;99.90
10247;DHT22;5168;47.854;7.944;2023-07-31T01:36:03;11.10;99.90
10247;DHT22;5168;47.854;7.944;2023-07-31T01:38:28;10.70;99.90
10247;DHT22;5168;47.854;7.944;2023-07-31T01:40:54;10.50;99.90
10247;DHT22;5168;47.854;7.944;2023-07-31T01:53:04;10.50;99.90
10247;DHT22;5168;47.854;7.944;2023-07-31T01:55:29;10.60;99.90
10247;DHT22;5168;47.854;7.944;2023-07-31T01:57:55;10.80;99.90
10247;DHT22;5168;47.854;7.944;2023-07-31T02:05:12;10.50;99.90
10247;DHT22;5168;47.854;7.944;2023-07-31T02:07:38;10.20;99.90
10247;DHT22;5168;47.854;7.944;2023-07-31T02:10:03;10.00;99.90
10247;DHT22;5168;47.854;7.944;2023-07-31T02:14:59;10.40;99.90
10247;DHT22;5168;47.854;7.944;2023-07-31T02:17:24;10.60;99.90
10247;DHT22;5168;47.854;7.944;2023-07-31T02:19:50;10.80;99.90
10247;DHT22;5168;47.854;7.944;2023-07-31T02:22:15;10.60;99.90
10247;DHT22;5168;47.854;7.944;2023-07-31T02:27:07;10.10;99.90
10247;DHT22;5168;47.854;7.944;2023-07-31T02:29:33;10.70;99.90
10247;DHT22;5168;47.854;7.944;2023-07-31T02:31:58;10.20;99.90
10247;DHT22;5168;47.854;7.944;2023-07-31T02:36:49;10.30;99.90
10247;DHT22;5168;47.854;7.944;2023-07-31T02:39:15;10.10;99.90
10247;DHT22;5168;47.854;7.944;2023-07-31T02:41:40;10.20;99.90
10247;DHT22;5168;47.854;7.944;2023-07-31T02:46:32;10.00;99.90
10247;DHT22;5168;47.854;7.944;2023-07-31T02:48:57;9.60;99.90
10247;DHT22;5168;47.854;7.944;2023-07-31T02:51:23;10.20;99.90
10247;DHT22;5168;47.854;7.944;2023-07-31T03:03:34;10.30;99.90
10247;DHT22;5168;47.854;7.944;2023-07-31T03:05:59;9.90;99.90
10247;DHT22;5168;47.854;7.944;2023-07-31T03:10:51;9.70;99.90
10247;DHT22;5168;47.854;7.944;2023-07-31T03:13:16;9.90;99.90
10247;DHT22;5168;47.854;7.944;2023-07-31T03:15:42;10.10;99.90
10247;DHT22;5168;47.854;7.944;2023-07-31T03:18:08;10.20;99.90
10247;DHT22;5168;47.854;7.944;2023-07-31T03:23:00;10.50;99.90
10247;DHT22;5168;47.854;7.944;2023-07-31T03:25:25;10.60;99.90
10247;DHT22;5168;47.854;7.944;2023-07-31T03:27:51;10.30;99.90
10247;DHT22;5168;47.854;7.944;2023-07-31T03:30:17;10.80;99.90
10247;DHT22;5168;47.854;7.944;2023-07-31T03:37:34;10.60;99.90
10247;DHT22;5168;47.854;7.944;2023-07-31T03:40:00;10.70;99.90
10247;DHT22;5168;47.854;7.944;2023-07-31T03:42:25;10.70;99.90
10247;DHT22;5168;47.854;7.944;2023-07-31T03:49:42;10.80;99.90
10247;DHT22;5168;47.854;7.944;2023-07-31T03:52:08;10.80;99.90
10247;DHT22;5168;47.854;7.944;2023-07-31T03:54:33;11.10;99.90
10247;DHT22;5168;47.854;7.944;2023-07-31T04:01:51;10.40;99.90
10247;DHT22;5168;47.854;7.944;2023-07-31T04:04:16;10.80;99.90
10247;DHT22;5168;47.854;7.944;2023-07-31T04:06:42;10.80;99.90
10247;DHT22;5168;47.854;7.944;2023-07-31T04:09:08;10.90;99.90
10247;DHT22;5168;47.854;7.944;2023-07-31T04:16:26;10.70;99.90
10247;DHT22;5168;47.854;7.944;2023-07-31T04:18:51;11.10;99.90
10247;DHT22;5168;47.854;7.944;2023-07-31T04:21:17;10.90;99.90
10247;DHT22;5168;47.854;7.944;2023-07-31T04:23:43;10.10;99.90
10247;DHT22;5168;47.854;7.944;2023-07-31T04:28:34;10.90;99.90
10247;DHT22;5168;47.854;7.944;2023-07-31T04:31:00;10.60;99.90
10247;DHT22;5168;47.854;7.944;2023-07-31T04:33:25;10.70;99.90
10247;DHT22;5168;47.854;7.944;2023-07-31T04:35:54;10.70;99.90
10247;DHT22;5168;47.854;7.944;2023-07-31T04:38:20;10.50;99.90
10247;DHT22;5168;47.854;7.944;2023-07-31T04:40:46;10.90;99.90
10247;DHT22;5168;47.854;7.944;2023-07-31T04:43:12;11.10;99.90
10247;DHT22;5168;47.854;7.944;2023-07-31T04:45:38;10.90;99.90
10247;DHT22;5168;47.854;7.944;2023-07-31T05:00:16;10.40;99.90
10247;DHT22;5168;47.854;7.944;2023-07-31T05:02:42;10.80;99.90
10247;DHT22;5168;47.854;7.944;2023-07-31T05:05:08;10.90;99.90
10247;DHT22;5168;47.854;7.944;2023-07-31T05:07:33;11.40;99.90
10247;DHT22;5168;47.854;7.944;2023-07-31T05:09:59;10.90;99.90
10247;DHT22;5168;47.854;7.944;2023-07-31T05:19:42;11.10;99.90
10247;DHT22;5168;47.854;7.944;2023-07-31T05:22:08;11.10;99.90
10247;DHT22;5168;47.854;7.944;2023-07-31T05:26:59;11.10;99.90
10247;DHT22;5168;47.854;7.944;2023-07-31T05:36:43;11.60;99.90
10247;DHT22;5168;47.854;7.944;2023-07-31T05:39:08;11.10;99.90
10247;DHT22;5168;47.854;7.944;2023-07-31T05:41:35;11.70;99.90
10247;DHT22;5168;47.854;7.944;2023-07-31T05:44:04;11.20;99.90
10247;DHT22;5168;47.854;7.944;2023-07-31T05:48:56;11.30;99.90
10247;DHT22;5168;47.854;7.944;2023-07-31T05:53:47;11.60;99.90
10247;DHT22;5168;47.854;7.944;2023-07-31T05:56:13;12.10;99.90
10247;DHT22;5168;47.854;7.944;2023-07-31T05:58:38;11.50;99.90
10247;DHT22;5168;47.854;7.944;2023-07-31T06:03:30;11.40;99.90
10247;DHT22;5168;47.854;7.944;2023-07-31T06:05:55;11.20;99.90
10247;DHT22;5168;47.854;7.944;2023-07-31T06:08:21;11.60;99.90
10247;DHT22;5168;47.854;7.944;2023-07-31T06:13:13;12.20;99.90
10247;DHT22;5168;47.854;7.944;2023-07-31T06:15:38;11.30;99.90
10247;DHT22;5168;47.854;7.944;2023-07-31T06:22:59;12.20;99.90
10247;DHT22;5168;47.854;7.944;2023-07-31T06:25:24;12.40;99.90
10247;DHT22;5168;47.854;7.944;2023-07-31T06:27:50;11.70;99.90
10247;DHT22;5168;47.854;7.944;2023-07-31T06:35:08;12.30;99.90
10247;DHT22;5168;47.854;7.944;2023-07-31T06:37:33;12.60;99.90
10247;DHT22;5168;47.854;7.944;2023-07-31T06:39:59;11.90;99.90
10247;DHT22;5168;47.854;7.944;2023-07-31T06:42:24;12.60;99.90
10247;DHT22;5168;47.854;7.944;2023-07-31T06:44:50;12.00;99.90
10247;DHT22;5168;47.854;7.944;2023-07-31T06:49:42;12.40;99.90
10247;DHT22;5168;47.854;7.944;2023-07-31T06:52:07;12.30;99.90
10247;DHT22;5168;47.854;7.944;2023-07-31T06:56:59;12.60;99.90
10247;DHT22;5168;47.854;7.944;2023-07-31T07:01:50;12.80;99.90
10247;DHT22;5168;47.854;7.944;2023-07-31T07:04:16;12.40;99.90
10247;DHT22;5168;47.854;7.944;2023-07-31T07:06:41;12.40;99.90
10247;DHT22;5168;47.854;7.944;2023-07-31T07:16:28;12.70;99.90
10247;DHT22;5168;47.854;7.944;2023-07-31T07:18:54;13.20;99.90
10247;DHT22;5168;47.854;7.944;2023-07-31T07:28:37;13.20;99.90
10247;DHT22;5168;47.854;7.944;2023-07-31T07:31:06;13.40;99.90
10247;DHT22;5168;47.854;7.944;2023-07-31T07:33:31;13.10;99.90
10247;DHT22;5168;47.854;7.944;2023-07-31T07:36:00;13.40;99.90
10247;DHT22;5168;47.854;7.944;2023-07-31T07:38:27;13.80;99.90
10247;DHT22;5168;47.854;7.944;2023-07-31T07:50:38;14.10;99.90
10247;DHT22;5168;47.854;7.944;2023-07-31T07:55:29;14.10;99.90
10247;DHT22;5168;47.854;7.944;2023-07-31T08:05:13;15.10;99.90
10247;DHT22;5168;47.854;7.944;2023-07-31T08:07:39;14.80;99.90
10247;DHT22;5168;47.854;7.944;2023-07-31T08:10:05;14.70;99.90
10247;DHT22;5168;47.854;7.944;2023-07-31T08:12:31;15.20;99.90
10247;DHT22;5168;47.854;7.944;2023-07-31T08:14:56;14.70;99.90
10247;DHT22;5168;47.854;7.944;2023-07-31T08:17:23;15.00;99.90
10247;DHT22;5168;47.854;7.944;2023-07-31T08:19:49;14.80;99.90
10247;DHT22;5168;47.854;7.944;2023-07-31T08:27:07;14.30;99.90
10247;DHT22;5168;47.854;7.944;2023-07-31T08:29:32;14.30;99.90
10247;DHT22;5168;47.854;7.944;2023-07-31T08:31:58;14.00;99.90
10247;DHT22;5168;47.854;7.944;2023-07-31T08:34:23;14.40;99.90
10247;DHT22;5168;47.854;7.944;2023-07-31T08:36:49;15.00;99.90
10247;DHT22;5168;47.854;7.944;2023-07-31T08:44:07;15.00;99.90
10247;DHT22;5168;47.854;7.944;2023-07-31T08:46:33;15.10;99.90
10247;DHT22;5168;47.854;7.944;2023-07-31T08:49:00;15.00;99.90
10247;DHT22;5168;47.854;7.944;2023-07-31T08:56:20;16.20;99.90
10247;DHT22;5168;47.854;7.944;2023-07-31T08:58:46;15.50;99.90
10247;DHT22;5168;47.854;7.944;2023-07-31T09:01:13;16.30;99.90
10247;DHT22;5168;47.854;7.944;2023-07-31T09:06:05;17.30;99.90
10247;DHT22;5168;47.854;7.944;2023-07-31T09:11:02;17.10;99.90
10247;DHT22;5168;47.854;7.944;2023-07-31T09:13:31;17.00;99.90
10247;DHT22;5168;47.854;7.944;2023-07-31T09:15:57;18.20;99.90
10247;DHT22;5168;47.854;7.944;2023-07-31T09:18:25;18.00;99.90
10247;DHT22;5168;47.854;7.944;2023-07-31T09:21:01;19.20;99.90
10247;DHT22;5168;47.854;7.944;2023-07-31T09:23:46;18.50;99.90
10247;DHT22;5168;47.854;7.944;2023-07-31T09:26:36;19.20;99.90
10247;DHT22;5168;47.854;7.944;2023-07-31T09:29:06;19.00;99.90
10247;DHT22;5168;47.854;7.944;2023-07-31T09:34:03;18.20;99.90
10247;DHT22;5168;47.854;7.944;2023-07-31T09:36:30;18.20;99.90
10247;DHT22;5168;47.854;7.944;2023-07-31T09:39:02;17.90;99.90
10247;DHT22;5168;47.854;7.944;2023-07-31T09:41:29;18.00;99.90
10247;DHT22;5168;47.854;7.944;2023-07-31T09:48:47;18.10;99.90
10247;DHT22;5168;47.854;7.944;2023-07-31T09:51:13;18.60;99.90
10247;DHT22;5168;47.854;7.944;2023-07-31T09:53:38;18.90;99.90
10247;DHT22;5168;47.854;7.944;2023-07-31T09:56:05;18.80;99.90
10247;DHT22;5168;47.854;7.944;2023-07-31T09:58:34;19.30;99.90
10247;DHT22;5168;47.854;7.944;2023-07-31T10:01:01;19.20;99.90
10247;DHT22;5168;47.854;7.944;2023-07-31T10:03:27;20.10;99.90
10247;DHT22;5168;47.854;7.944;2023-07-31T10:05:56;20.00;99.90
10247;DHT22;5168;47.854;7.944;2023-07-31T10:08:28;20.20;99.90
10247;DHT22;5168;47.854;7.944;2023-07-31T10:10:58;20.30;99.90
10247;DHT22;5168;47.854;7.944;2023-07-31T10:18:18;20.60;99.90
10247;DHT22;5168;47.854;7.944;2023-07-31T10:20:44;20.60;99.90
10247;DHT22;5168;47.854;7.944;2023-07-31T10:23:11;20.60;99.90
10247;DHT22;5168;47.854;7.944;2023-07-31T10:25:37;20.80;99.90
10247;DHT22;5168;47.854;7.944;2023-07-31T10:28:06;21.20;99.90
10247;DHT22;5168;47.854;7.944;2023-07-31T10:30:33;21.50;99.90
10247;DHT22;5168;47.854;7.944;2023-07-31T10:33:00;21.30;99.90
10247;DHT22;5168;47.854;7.944;2023-07-31T10:35:28;21.40;99.90
10247;DHT22;5168;47.854;7.944;2023-07-31T10:40:24;20.90;99.90
10247;DHT22;5168;47.854;7.944;2023-07-31T10:42:52;20.80;99.90
10247;DHT22;5168;47.854;7.944;2023-07-31T10:45:44;20.30;99.90
10247;DHT22;5168;47.854;7.944;2023-07-31T10:48:14;20.30;99.90
10247;DHT22;5168;47.854;7.944;2023-07-31T10:53:26;20.10;99.90
10247;DHT22;5168;47.854;7.944;2023-07-31T10:58:19;19.70;99.90
10247;DHT22;5168;47.854;7.944;2023-07-31T11:00:49;20.00;99.90
10247;DHT22;5168;47.854;7.944;2023-07-31T11:03:19;19.60;99.90
10247;DHT22;5168;47.854;7.944;2023-07-31T11:08:13;19.30;99.90
10247;DHT22;5168;47.854;7.944;2023-07-31T11:10:39;20.30;99.90
10247;DHT22;5168;47.854;7.944;2023-07-31T11:15:31;20.60;99.90
10247;DHT22;5168;47.854;7.944;2023-07-31T11:20:30;21.40;99.90
10247;DHT22;5168;47.854;7.944;2023-07-31T11:22:59;21.50;99.90
10247;DHT22;5168;47.854;7.944;2023-07-31T11:25:24;21.30;99.90
10247;DHT22;5168;47.854;7.944;2023-07-31T11:27:50;21.70;99.90
10247;DHT22;5168;47.854;7.944;2023-07-31T11:30:19;21.80;99.90
10247;DHT22;5168;47.854;7.944;2023-07-31T11:32:45;21.80;99.90
10247;DHT22;5168;47.854;7.944;2023-07-31T11:35:17;21.80;99.90
10247;DHT22;5168;47.854;7.944;2023-07-31T11:37:44;21.60;99.90
10247;DHT22;5168;47.854;7.944;2023-07-31T11:40:10;21.30;99.90
10247;DHT22;5168;47.854;7.944;2023-07-31T11:42:36;20.30;99.90
10247;DHT22;5168;47.854;7.944;2023-07-31T11:45:06;20.10;99.90
10247;DHT22;5168;47.854;7.944;2023-07-31T11:47:36;20.30;99.90
10247;DHT22;5168;47.854;7.944;2023-07-31T11:50:07;20.20;99.90
10247;DHT22;5168;47.854;7.944;2023-07-31T11:52:42;19.30;99.90
10247;DHT22;5168;47.854;7.944;2023-07-31T11:57:39;19.30;99.90
10247;DHT22;5168;47.854;7.944;2023-07-31T12:00:07;20.10;99.90
10247;DHT22;5168;47.854;7.944;2023-07-31T12:02:34;19.80;99.90
10247;DHT22;5168;47.854;7.944;2023-07-31T12:04:59;20.70;99.90
10247;DHT22;5168;47.854;7.944;2023-07-31T12:09:53;20.90;99.90
10247;DHT22;5168;47.854;7.944;2023-07-31T12:12:22;21.40;99.90
10247;DHT22;5168;47.854;7.944;2023-07-31T12:14:48;21.90;99.90
10247;DHT22;5168;47.854;7.944;2023-07-31T12:22:15;22.00;99.90
10247;DHT22;5168;47.854;7.944;2023-07-31T12:24:43;22.00;99.90
10247;DHT22;5168;47.854;7.944;2023-07-31T12:27:15;22.00;99.90
10247;DHT22;5168;47.854;7.944;2023-07-31T12:29:43;21.90;99.90
10247;DHT22;5168;47.854;7.944;2023-07-31T12:32:23;21.90;99.90
10247;DHT22;5168;47.854;7.944;2023-07-31T12:34:54;21.70;99.90
10247;DHT22;5168;47.854;7.944;2023-07-31T12:37:21;22.00;99.90
10247;DHT22;5168;47.854;7.944;2023-07-31T12:39:49;22.30;99.90
10247;DHT22;5168;47.854;7.944;2023-07-31T12:42:17;22.20;99.90
10247;DHT22;5168;47.854;7.944;2023-07-31T12:49:34;22.10;99.90
10247;DHT22;5168;47.854;7.944;2023-07-31T12:52:00;22.70;99.90
10247;DHT22;5168;47.854;7.944;2023-07-31T12:54:26;22.30;99.90
10247;DHT22;5168;47.854;7.944;2023-07-31T13:01:43;21.80;99.90
10247;DHT22;5168;47.854;7.944;2023-07-31T13:04:08;21.80;99.90
10247;DHT22;5168;47.854;7.944;2023-07-31T13:09:00;22.10;99.90
10247;DHT22;5168;47.854;7.944;2023-07-31T13:11:28;21.40;99.90
10247;DHT22;5168;47.854;7.944;2023-07-31T13:21:12;21.50;99.90
10247;DHT22;5168;47.854;7.944;2023-07-31T13:23:37;21.50;99.90
10247;DHT22;5168;47.854;7.944;2023-07-31T13:26:03;21.90;99.90
10247;DHT22;5168;47.854;7.944;2023-07-31T13:28:29;21.80;99.90
10247;DHT22;5168;47.854;7.944;2023-07-31T13:30:54;21.80;99.90
10247;DHT22;5168;47.854;7.944;2023-07-31T13:33:20;21.90;99.90
10247;DHT22;5168;47.854;7.944;2023-07-31T13:35:45;21.80;99.90
10247;DHT22;5168;47.854;7.944;2023-07-31T13:43:03;21.80;99.90
10247;DHT22;5168;47.854;7.944;2023-07-31T13:45:28;22.10;99.90
10247;DHT22;5168;47.854;7.944;2023-07-31T13:47:54;21.70;99.90
10247;DHT22;5168;47.854;7.944;2023-07-31T13:50:20;21.80;99.90
10247;DHT22;5168;47.854;7.944;2023-07-31T13:55:13;21.40;99.90
10247;DHT22;5168;47.854;7.944;2023-07-31T13:57:39;21.70;99.90
10247;DHT22;5168;47.854;7.944;2023-07-31T14:00:05;21.40;99.90
10247;DHT22;5168;47.854;7.944;2023-07-31T14:04:56;21.00;99.90
10247;DHT22;5168;47.854;7.944;2023-07-31T14:12:14;21.10;99.90
10247;DHT22;5168;47.854;7.944;2023-07-31T14:14:39;20.40;99.90
10247;DHT22;5168;47.854;7.944;2023-07-31T14:17:05;21.00;99.90
10247;DHT22;5168;47.854;7.944;2023-07-31T14:21:58;20.40;99.90
10247;DHT22;5168;47.854;7.944;2023-07-31T14:24:24;19.90;99.90
10247;DHT22;5168;47.854;7.944;2023-07-31T14:26:49;20.30;99.90
10247;DHT22;5168;47.854;7.944;2023-07-31T14:34:07;20.30;99.90
10247;DHT22;5168;47.854;7.944;2023-07-31T14:36:32;20.10;99.90
10247;DHT22;5168;47.854;7.944;2023-07-31T14:38:59;20.00;99.90
10247;DHT22;5168;47.854;7.944;2023-07-31T14:41:25;19.60;99.90
10247;DHT22;5168;47.854;7.944;2023-07-31T14:43:51;19.70;99.90
10247;DHT22;5168;47.854;7.944;2023-07-31T14:48:42;19.30;99.90
10247;DHT22;5168;47.854;7.944;2023-07-31T14:53:33;20.10;99.90
10247;DHT22;5168;47.854;7.944;2023-07-31T14:56:01;20.30;99.90
10247;DHT22;5168;47.854;7.944;2023-07-31T14:58:27;19.90;99.90
10247;DHT22;5168;47.854;7.944;2023-07-31T15:00:53;20.00;99.90
10247;DHT22;5168;47.854;7.944;2023-07-31T15:13:02;20.60;99.90
10247;DHT22;5168;47.854;7.944;2023-07-31T15:15:28;20.10;99.90
10247;DHT22;5168;47.854;7.944;2023-07-31T15:17:53;20.40;99.90
10247;DHT22;5168;47.854;7.944;2023-07-31T15:20:20;20.00;99.90
10247;DHT22;5168;47.854;7.944;2023-07-31T15:22:46;19.90;99.90
10247;DHT22;5168;47.854;7.944;2023-07-31T15:30:07;20.10;99.90
10247;DHT22;5168;47.854;7.944;2023-07-31T15:32:33;20.50;99.90
10247;DHT22;5168;47.854;7.944;2023-07-31T15:34:59;19.40;99.90
10247;DHT22;5168;47.854;7.944;2023-07-31T15:37:24;20.10;99.90
10247;DHT22;5168;47.854;7.944;2023-07-31T15:44:42;19.00;99.90
10247;DHT22;5168;47.854;7.944;2023-07-31T15:47:07;18.90;99.90
10247;DHT22;5168;47.854;7.944;2023-07-31T15:51:59;19.10;99.90
10247;DHT22;5168;47.854;7.944;2023-07-31T16:01:42;18.90;99.90
10247;DHT22;5168;47.854;7.944;2023-07-31T16:04:08;18.50;99.90
10247;DHT22;5168;47.854;7.944;2023-07-31T16:08:59;18.10;99.90
10247;DHT22;5168;47.854;7.944;2023-07-31T16:11:26;18.60;99.90
10247;DHT22;5168;47.854;7.944;2023-07-31T16:13:52;18.20;99.90
10247;DHT22;5168;47.854;7.944;2023-07-31T16:18:45;18.40;99.90
10247;DHT22;5168;47.854;7.944;2023-07-31T16:21:10;18.20;99.90
10247;DHT22;5168;47.854;7.944;2023-07-31T16:26:03;17.90;99.90
10247;DHT22;5168;47.854;7.944;2023-07-31T16:30:54;17.90;99.90
10247;DHT22;5168;47.854;7.944;2023-07-31T16:38:12;18.40;99.90
10247;DHT22;5168;47.854;7.944;2023-07-31T16:40:37;17.80;99.90
10247;DHT22;5168;47.854;7.944;2023-07-31T16:43:03;18.50;99.90
10247;DHT22;5168;47.854;7.944;2023-07-31T16:47:57;18.20;99.90
10247;DHT22;5168;47.854;7.944;2023-07-31T17:00:07;18.40;99.90
10247;DHT22;5168;47.854;7.944;2023-07-31T17:02:32;18.40;99.90
10247;DHT22;5168;47.854;7.944;2023-07-31T17:04:58;17.90;99.90
10247;DHT22;5168;47.854;7.944;2023-07-31T17:14:41;17.50;99.90
10247;DHT22;5168;47.854;7.944;2023-07-31T17:17:07;18.50;99.90
10247;DHT22;5168;47.854;7.944;2023-07-31T17:21:58;17.60;99.90
10247;DHT22;5168;47.854;7.944;2023-07-31T17:26:50;18.40;99.90
10247;DHT22;5168;47.854;7.944;2023-07-31T17:31:42;17.50;99.90
10247;DHT22;5168;47.854;7.944;2023-07-31T17:34:08;17.30;99.90
10247;DHT22;5168;47.854;7.944;2023-07-31T17:36:34;17.40;99.90
10247;DHT22;5168;47.854;7.944;2023-07-31T17:39:00;17.50;99.90
10247;DHT22;5168;47.854;7.944;2023-07-31T17:41:26;18.00;99.90
10247;DHT22;5168;47.854;7.944;2023-07-31T17:43:53;18.10;99.90
10247;DHT22;5168;47.854;7.944;2023-07-31T17:46:21;17.30;99.90
10247;DHT22;5168;47.854;7.944;2023-07-31T17:48:47;17.10;99.90
10247;DHT22;5168;47.854;7.944;2023-07-31T17:51:14;17.70;99.90
10247;DHT22;5168;47.854;7.944;2023-07-31T17:56:05;17.60;99.90
10247;DHT22;5168;47.854;7.944;2023-07-31T17:58:31;17.20;99.90
10247;DHT22;5168;47.854;7.944;2023-07-31T18:00:59;17.30;99.90
10247;DHT22;5168;47.854;7.944;2023-07-31T18:03:25;17.60;99.90
10247;DHT22;5168;47.854;7.944;2023-07-31T18:05:53;17.80;99.90
10247;DHT22;5168;47.854;7.944;2023-07-31T18:08:18;18.00;99.90
10247;DHT22;5168;47.854;7.944;2023-07-31T18:10:48;17.80;99.90
10247;DHT22;5168;47.854;7.944;2023-07-31T18:13:14;18.00;99.90
10247;DHT22;5168;47.854;7.944;2023-07-31T18:15:46;17.60;99.90
10247;DHT22;5168;47.854;7.944;2023-07-31T18:18:12;17.80;99.90
10247;DHT22;5168;47.854;7.944;2023-07-31T18:20:38;17.20;99.90
10247;DHT22;5168;47.854;7.944;2023-07-31T18:23:07;17.00;99.90
10247;DHT22;5168;47.854;7.944;2023-07-31T18:25:32;17.10;99.90
10247;DHT22;5168;47.854;7.944;2023-07-31T18:27:58;17.00;99.90
10247;DHT22;5168;47.854;7.944;2023-07-31T18:30:23;17.60;99.90
10247;DHT22;5168;47.854;7.944;2023-07-31T18:32:49;17.00;99.90
10247;DHT22;5168;47.854;7.944;2023-07-31T18:35:14;17.20;99.90
10247;DHT22;5168;47.854;7.944;2023-07-31T18:37:42;17.30;99.90
10247;DHT22;5168;47.854;7.944;2023-07-31T18:40:11;17.60;99.90
10247;DHT22;5168;47.854;7.944;2023-07-31T18:42:37;16.80;99.90
10247;DHT22;5168;47.854;7.944;2023-07-31T18:45:03;17.00;99.90
10247;DHT22;5168;47.854;7.944;2023-07-31T18:47:29;16.80;99.90
10247;DHT22;5168;47.854;7.944;2023-07-31T18:49:56;16.80;99.90
10247;DHT22;5168;47.854;7.944;2023-07-31T18:52:22;17.50;99.90
10247;DHT22;5168;47.854;7.944;2023-07-31T18:57:14;17.20;99.90
10247;DHT22;5168;47.854;7.944;2023-07-31T18:59:40;17.20;99.90
10247;DHT22;5168;47.854;7.944;2023-07-31T19:06:59;16.70;99.90
10247;DHT22;5168;47.854;7.944;2023-07-31T19:09:32;17.00;99.90
10247;DHT22;5168;47.854;7.944;2023-07-31T19:16:50;17.40;99.90
10247;DHT22;5168;47.854;7.944;2023-07-31T19:19:16;16.90;99.90
10247;DHT22;5168;47.854;7.944;2023-07-31T19:21:42;16.50;99.90
10247;DHT22;5168;47.854;7.944;2023-07-31T19:24:10;16.90;99.90
10247;DHT22;5168;47.854;7.944;2023-07-31T19:26:36;16.20;99.90
10247;DHT22;5168;47.854;7.944;2023-07-31T19:33:53;16.20;99.90
10247;DHT22;5168;47.854;7.944;2023-07-31T19:36:19;16.50;99.90
10247;DHT22;5168;47.854;7.944;2023-07-31T19:38:44;16.80;99.90
10247;DHT22;5168;47.854;7.944;2023-07-31T19:41:10;16.40;99.90
10247;DHT22;5168;47.854;7.944;2023-07-31T19:48:28;16.90;99.90
10247;DHT22;5168;47.854;7.944;2023-07-31T19:50:53;16.80;99.90
10247;DHT22;5168;47.854;7.944;2023-07-31T19:53:19;17.10;99.90
10247;DHT22;5168;47.854;7.944;2023-07-31T19:55:45;16.60;99.90
10247;DHT22;5168;47.854;7.944;2023-07-31T19:58:12;16.80;99.90
10247;DHT22;5168;47.854;7.944;2023-07-31T20:00:37;16.80;99.90
10247;DHT22;5168;47.854;7.944;2023-07-31T20:12:47;17.10;99.90
10247;DHT22;5168;47.854;7.944;2023-07-31T20:15:20;16.60;99.90
10247;DHT22;5168;47.854;7.944;2023-07-31T20:17:46;16.50;99.90
10247;DHT22;5168;47.854;7.944;2023-07-31T20:32:21;16.80;99.90
10247;DHT22;5168;47.854;7.944;2023-07-31T20:37:13;16.40;99.90
10247;DHT22;5168;47.854;7.944;2023-07-31T20:39:39;16.50;99.90
10247;DHT22;5168;47.854;7.944;2023-07-31T20:54:15;17.10;99.90
10247;DHT22;5168;47.854;7.944;2023-07-31T20:56:42;16.70;99.90
10247;DHT22;5168;47.854;7.944;2023-07-31T20:59:08;16.60;99.90
10247;DHT22;5168;47.854;7.944;2023-07-31T21:01:33;16.80;99.90
10247;DHT22;5168;47.854;7.944;2023-07-31T21:13:43;16.80;99.90
10247;DHT22;5168;47.854;7.944;2023-07-31T21:16:09;16.90;99.90
10247;DHT22;5168;47.854;7.944;2023-07-31T21:18:34;16.30;99.90
10247;DHT22;5168;47.854;7.944;2023-07-31T21:28:19;16.80;99.90
10247;DHT22;5168;47.854;7.944;2023-07-31T21:30:45;17.10;99.90
10247;DHT22;5168;47.854;7.944;2023-07-31T21:33:11;16.60;99.90
10247;DHT22;5168;47.854;7.944;2023-07-31T21:45:21;16.40;99.90
10247;DHT22;5168;47.854;7.944;2023-07-31T21:50:17;16.90;99.90
10247;DHT22;5168;47.854;7.944;2023-07-31T21:52:42;16.30;99.90
10247;DHT22;5168;47.854;7.944;2023-07-31T21:55:08;16.00;99.90
10247;DHT22;5168;47.854;7.944;2023-07-31T21:57:34;16.10;99.90
10247;DHT22;5168;47.854;7.944;2023-07-31T22:02:26;15.70;99.90
10247;DHT22;5168;47.854;7.944;2023-07-31T22:12:10;15.70;99.90
10247;DHT22;5168;47.854;7.944;2023-07-31T22:14:35;15.50;99.90
10247;DHT22;5168;47.854;7.944;2023-07-31T22:17:01;16.10;99.90
10247;DHT22;5168;47.854;7.944;2023-07-31T22:26:48;15.50;99.90
10247;DHT22;5168;47.854;7.944;2023-07-31T22:29:13;15.60;99.90
10247;DHT22;5168;47.854;7.944;2023-07-31T22:38:57;15.30;99.90
10247;DHT22;5168;47.854;7.944;2023-07-31T22:41:22;15.50;99.90
10247;DHT22;5168;47.854;7.944;2023-07-31T22:43:48;15.10;99.90
10247;DHT22;5168;47.854;7.944;2023-07-31T22:51:06;15.30;99.90
10247;DHT22;5168;47.854;7.944;2023-07-31T22:56:05;15.20;99.90
10247;DHT22;5168;47.854;7.944;2023-07-31T22:58:30;15.70;99.90
10247;DHT22;5168;47.854;7.944;2023-07-31T23:01:04;15.30;99.90
10247;DHT22;5168;47.854;7.944;2023-07-31T23:03:30;15.50;99.90
10247;DHT22;5168;47.854;7.944;2023-07-31T23:05:55;15.60;99.90
10247;DHT22;5168;47.854;7.944;2023-07-31T23:08:21;15.30;99.90
10247;DHT22;5168;47.854;7.944;2023-07-31T23:10:52;15.60;99.90
10247;DHT22;5168;47.854;7.944;2023-07-31T23:13:18;15.30;99.90
10247;DHT22;5168;47.854;7.944;2023-07-31T23:15:44;14.80;99.90
10247;DHT22;5168;47.854;7.944;2023-07-31T23:18:14;15.60;99.90
10247;DHT22;5168;47.854;7.944;2023-07-31T23:20:40;15.20;99.90
10247;DHT22;5168;47.854;7.944;2023-07-31T23:23:06;15.70;99.90
10247;DHT22;5168;47.854;7.944;2023-07-31T23:25:35;14.80;99.90
10247;DHT22;5168;47.854;7.944;2023-07-31T23:35:19;15.30;99.90
10247;DHT22;5168;47.854;7.944;2023-07-31T23:37:44;15.50;99.90
10247;DHT22;5168;47.854;7.944;2023-07-31T23:40:11;15.30;99.90
10247;DHT22;5168;47.854;7.944;2023-07-31T23:45:08;15.20;99.90
10247;DHT22;5168;47.854;7.944;2023-07-31T23:52:26;14.80;99.90
10247;DHT22;5168;47.854;7.944;2023-07-31T23:54:52;15.70;99.90
10247;DHT22;5168;47.854;7.944;2023-07-31T23:57:18;15.40;99.90
10247;DHT22;5168;47.854;7.944;2023-07-31T23:59:44;15.30;99.90
